Wednesday, January 17, 2018, 6:24 AM EST
Back to Local

KWVL, Waterville, Waterville Robert Lafleur Airport

Location: Waterville, ME, United States Lat: 44.533
Local Time: 6:24 AM EST (11:24 GMT) Lon: -69.683
Time Zone: US/Eastern Elev: 334 ft

Show me the last for .
Show Decoded

2018-01-17 05:56 METAR KWVL 171056Z AUTO 00000KT 1 1/2SM -SN BR SCT025 BKN043 OVC060 M06/M08
                 A3033 RMK AO2 SLP307 P0000 T10611083 FZRANO =
2018-01-17 05:26 METAR KWVL 171026Z AUTO 02003KT 1 3/4SM -SN BR BKN023 OVC028 M06/M08 A3034 RMK
                 AO2 P0000 FZRANO =
2018-01-17 05:07 METAR KWVL 171007Z AUTO 00000KT 2 1/2SM -SN BR OVC025 M06/M08 A3034 RMK AO2 VIS
                 1 3/4V3 P0000 FZRANO =
2018-01-17 04:56 METAR KWVL 170956Z AUTO 03004KT 1 3/4SM -SN BR BKN025 OVC032 M06/M08 A3034 RMK
                 AO2 SLP309 P0000 T10611083 FZRANO =
2018-01-17 04:46 METAR KWVL 170946Z AUTO 03005KT 1 3/4SM -SN BR BKN025 BKN030 OVC043 M06/M08
                 A3034 RMK AO2 P0000 FZRANO =
2018-01-17 04:34 METAR KWVL 170934Z AUTO 03006KT 2SM -SN BR BKN032 OVC043 M06/M08 A3034 RMK AO2
                 P0000 FZRANO =
2018-01-17 04:24 METAR KWVL 170924Z AUTO 02004KT 1 3/4SM -SN BR FEW012 BKN032 OVC043 M06/M08
                 A3034 RMK AO2 P0000 FZRANO =
2018-01-17 03:56 METAR KWVL 170856Z AUTO 00000KT 2SM -SN BR OVC034 M06/M08 A3034 RMK AO2 SLP308
                 P0001 60002 T10611083 58007 FZRANO =
2018-01-17 03:35 METAR KWVL 170835Z AUTO 00000KT 2SM -SN BR FEW011 OVC037 M06/M08 A3035 RMK AO2
                 P0001 FZRANO =
2018-01-17 03:26 METAR KWVL 170826Z AUTO 00000KT 1 3/4SM -SN BR FEW011 OVC037 M06/M08 A3035 RMK
                 AO2 P0000 FZRANO =
2018-01-17 02:56 METAR KWVL 170756Z AUTO 00000KT 2 1/2SM -SN BR OVC045 M06/M08 A3035 RMK AO2
                 SLP312 P0001 T10611078 FZRANO =
2018-01-17 02:41 METAR KWVL 170741Z AUTO 00000KT 2SM -SN BR SCT026 OVC043 M06/M08 A3035 RMK AO2
                 P0001 FZRANO =
2018-01-17 02:32 METAR KWVL 170732Z AUTO 04003KT 2SM -SN BR BKN024 OVC043 M06/M08 A3035 RMK AO2
                 P0001 FZRANO =
2018-01-17 01:56 METAR KWVL 170656Z AUTO 02003KT 1 1/2SM -SN FEW017 BKN026 OVC041 M06/M09 A3035
                 RMK AO2 SLP311 P0000 T10611094 FZRANO =
2018-01-17 01:49 METAR KWVL 170649Z AUTO 01003KT 1 3/4SM -SN FEW017 BKN029 OVC041 M06/M10 A3035
                 RMK AO2 P0000 FZRANO =
2018-01-17 00:56 METAR KWVL 170556Z AUTO 00000KT 2 1/2SM -SN BR FEW017 BKN044 OVC060 M07/M08
                 A3036 RMK AO2 SLP315 P0001 60001 T10671083 11067 21078 58012 FZRANO =
2018-01-16 23:56 METAR KWVL 170456Z AUTO 00000KT 2 1/2SM -SN BKN035 OVC044 M07/M09 A3038 RMK AO2
                 SLP322 P0000 T10671094 410281111 FZRANO =
2018-01-16 22:56 METAR KWVL 170356Z AUTO 00000KT 9SM -SN SCT045 BKN055 OVC070 M07/M10 A3039 RMK
                 AO2 SLP327 P0000 T10671100 FZRANO =
2018-01-16 21:56 METAR KWVL 170256Z AUTO 00000KT 7SM -SN FEW038 BKN070 OVC090 M07/M09 A3040 RMK
                 AO2 SNB37 SLP332 P0000 60000 T10671094 55002 FZRANO =
2018-01-16 20:56 METAR KWVL 170156Z AUTO 00000KT 10SM OVC090 M07/M11 A3040 RMK AO2 SLP330
                 T10721106 FZRANO =
2018-01-16 19:56 METAR KWVL 170056Z AUTO 00000KT 10SM BKN095 M08/M12 A3040 RMK AO2 SLP331
                 T10781122 FZRANO =
2018-01-16 18:56 METAR KWVL 162356Z AUTO 00000KT 10SM BKN110 M08/M13 A3041 RMK AO2 SLP334
                 T10781128 11028 21078 51003 FZRANO =
2018-01-16 17:56 METAR KWVL 162256Z AUTO 00000KT 10SM FEW120 M07/M12 A3041 RMK AO2 SLP334
                 T10721117 FZRANO TSNO =
2018-01-16 16:56 METAR KWVL 162156Z AUTO 00000KT 10SM CLR M07/M13 A3040 RMK AO2 SLP331 T10721128
                 FZRANO =
2018-01-16 15:56 METAR KWVL 162056Z AUTO 22003KT 10SM CLR M05/M11 A3040 RMK AO2 SLP330 T10501111
                 53001 FZRANO =
2018-01-16 14:56 METAR KWVL 161956Z AUTO 20005KT 10SM OVC060 M04/M11 A3039 RMK AO2 SLP327
                 T10441111 FZRANO =
2018-01-16 13:56 METAR KWVL 161856Z AUTO 00000KT 10SM BKN065 M03/M12 A3040 RMK AO2 SLP327
                 T10331117 FZRANO =
2018-01-16 12:56 METAR KWVL 161756Z AUTO 21003KT 10SM CLR M04/M12 A3040 RMK AO2 SLP328 T10391117
                 11033 21111 58024 FZRANO =
2018-01-16 11:56 METAR KWVL 161656Z AUTO 23005KT 10SM CLR M04/M13 A3042 RMK AO2 SLP335 T10391128
                 FZRANO =
2018-01-16 10:56 METAR KWVL 161556Z AUTO 27003KT 10SM CLR M04/M12 A3046 RMK AO2 SLP350 T10391117
                 FZRANO =
2018-01-16 09:56 METAR KWVL 161456Z AUTO 03004KT 10SM CLR M07/M14 A3047 RMK AO2 SLP353 T10671139
                 50003 FZRANO =
2018-01-16 08:56 METAR KWVL 161356Z AUTO 00000KT 10SM BKN120 M10/M13 A3048 RMK AO2 SLP357
                 T11001133 FZRANO =
2018-01-16 07:56 METAR KWVL 161256Z AUTO 00000KT 10SM SCT029 OVC110 M11/M14 A3046 RMK AO2 SLP351
                 T11111144 FZRANO =
2018-01-16 06:56 METAR KWVL 161156Z AUTO 01004KT 10SM OVC029 M11/M14 A3047 RMK AO2 SNE10 SLP355
                 P0000 60000 T11111139 11111 21111 53004 FZRANO =

Support USWX by starting your Amazon purchase here.